EDDN

Nuremberg Airport

Nuremberg, Germany
METAR EDDN 181420Z 31007KT 280V040 CAVOK 29/13 Q1020 NOSIG
Observed Flight Rules
Aug-18 @ 14:20 UTC (33 minutes ago) Visual Flight Rules
Wind Visibility Clouds
310° at 7 knots 10,000+ meters
  • Clear skies
Temperatures Readings
Current 29°C / 84°F
Dewpoint 13°C / 55°F
Humidity 37%
Altimeter 30.12" Hg
Pressure 1020 hPa
Elevation 312
METAR EDDN 181420Z 31007KT 280V040 CAVOK 29/13 Q1020 NOSIG
Observed Flight Rules
Aug-18 @ 14:20 UTC
(33 minutes ago)
VFR
Wind Visibility
310° at 7 knots 10,000+ meters
Clouds
  • Clear skies
Temperature Dewpoint
29°C / 84°F 13°C / 55°F
Humidity Altimeter Pressure
37% 30.12" Hg 1020 hPa